createdAt,value
2022-09-27T00:01:13.720Z,16.93
2022-09-27T00:03:42.351Z,18.10
2022-09-27T00:06:14.642Z,20.80
2022-09-27T00:08:43.530Z,21.67
2022-09-27T00:11:18.795Z,24.83
2022-09-27T00:13:47.393Z,20.90
2022-09-27T00:16:15.922Z,20.30
2022-09-27T00:18:44.314Z,22.53
2022-09-27T00:21:14.585Z,21.13
2022-09-27T00:23:43.212Z,21.40
2022-09-27T00:26:14.957Z,18.90
2022-09-27T00:28:43.694Z,18.97
2022-09-27T00:31:18.149Z,19.50
2022-09-27T00:33:46.412Z,19.97
2022-09-27T00:36:14.694Z,19.00
2022-09-27T00:38:43.355Z,19.90
2022-09-27T00:41:16.818Z,19.70
2022-09-27T00:43:48.718Z,20.27
2022-09-27T00:46:22.251Z,20.43
2022-09-27T00:49:01.551Z,19.13
2022-09-27T00:51:30.258Z,19.70
2022-09-27T00:53:59.441Z,21.03
2022-09-27T00:56:31.052Z,21.60
2022-09-27T00:59:02.763Z,20.30
2022-09-27T01:01:31.748Z,23.80
2022-09-27T01:04:03.318Z,24.10
2022-09-27T01:06:32.076Z,21.00
2022-09-27T01:09:00.533Z,20.97
2022-09-27T01:11:37.907Z,22.33
2022-09-27T01:14:14.731Z,16.63
2022-09-27T01:16:46.645Z,18.33
2022-09-27T01:19:25.012Z,19.67
2022-09-27T01:21:58.051Z,20.73
2022-09-27T01:24:52.433Z,20.40
2022-09-27T01:27:57.273Z,19.57
2022-09-27T01:30:29.292Z,18.20
2022-09-27T01:33:10.494Z,18.77
2022-09-27T01:35:45.628Z,18.70
2022-09-27T01:38:19.044Z,19.20
2022-09-27T01:40:52.582Z,18.37
2022-09-27T01:43:44.241Z,15.77
2022-09-27T01:46:17.113Z,17.23
2022-09-27T01:49:09.952Z,17.20
2022-09-27T01:51:41.283Z,16.10
2022-09-27T01:54:13.775Z,17.40
2022-09-27T01:57:01.797Z,18.13
2022-09-27T01:59:39.708Z,17.90
2022-09-27T02:02:24.783Z,17.13
2022-09-27T02:05:28.653Z,17.23
2022-09-27T02:08:04.079Z,17.00
2022-09-27T02:10:35.360Z,19.30
2022-09-27T02:13:22.447Z,20.80
2022-09-27T02:16:00.099Z,15.60
2022-09-27T02:18:48.799Z,19.37
2022-09-27T02:21:18.177Z,19.73
2022-09-27T02:23:49.144Z,19.60
2022-09-27T02:26:20.179Z,16.77
2022-09-27T02:28:52.994Z,19.97
2022-09-27T02:31:28.533Z,19.63
2022-09-27T02:34:02.627Z,17.43
2022-09-27T02:36:31.409Z,22.47
2022-09-27T02:39:00.330Z,20.60
2022-09-27T02:41:30.086Z,20.70
2022-09-27T02:44:01.313Z,22.17
2022-09-27T02:46:50.758Z,22.90
2022-09-27T02:49:31.204Z,23.30
2022-09-27T02:52:35.658Z,22.43
2022-09-27T02:55:10.488Z,23.93
2022-09-27T02:58:06.335Z,21.93
2022-09-27T03:00:50.475Z,25.13
2022-09-27T03:03:45.100Z,33.53
2022-09-27T03:06:16.298Z,25.90
2022-09-27T03:08:45.301Z,31.63
2022-09-27T03:11:13.583Z,30.67
2022-09-27T03:14:06.889Z,29.50
2022-09-27T03:16:30.140Z,33.33
2022-09-27T03:19:24.687Z,31.93
2022-09-27T03:22:14.334Z,29.03
2022-09-27T03:24:43.065Z,30.73
2022-09-27T03:27:11.439Z,31.17
2022-09-27T03:29:39.698Z,29.63
2022-09-27T03:32:10.820Z,29.40
2022-09-27T03:35:08.854Z,31.83
2022-09-27T03:37:38.735Z,30.00
2022-09-27T03:40:08.686Z,28.13
2022-09-27T03:42:37.075Z,31.60
2022-09-27T03:45:05.927Z,31.67
2022-09-27T03:47:34.160Z,28.30
2022-09-27T03:50:02.603Z,28.07
2022-09-27T03:52:30.854Z,25.20
2022-09-27T03:55:02.358Z,27.67
2022-09-27T03:57:32.181Z,30.87
2022-09-27T04:00:00.724Z,29.67
2022-09-27T04:02:41.205Z,31.03
2022-09-27T04:05:30.482Z,30.57
2022-09-27T04:08:03.312Z,30.77
2022-09-27T04:10:36.895Z,31.40
2022-09-27T04:13:05.974Z,27.03
2022-09-27T04:15:40.458Z,28.30
2022-09-27T04:18:41.020Z,28.07
2022-09-27T04:21:38.410Z,30.37
2022-09-27T04:24:08.365Z,27.53
2022-09-27T04:26:40.027Z,29.03
2022-09-27T04:29:12.750Z,28.23
2022-09-27T04:31:48.070Z,21.73
2022-09-27T04:35:03.011Z,24.50
2022-09-27T04:37:31.521Z,21.93
2022-09-27T04:40:03.516Z,22.40
2022-09-27T04:42:34.175Z,17.10
2022-09-27T04:45:02.391Z,17.60
2022-09-27T04:47:30.932Z,17.67
2022-09-27T04:49:59.253Z,16.50
2022-09-27T04:52:28.090Z,15.57
2022-09-27T04:54:56.328Z,16.27
2022-09-27T04:57:24.876Z,13.50
2022-09-27T04:59:54.523Z,21.97
2022-09-27T05:02:22.833Z,15.57
2022-09-27T05:05:17.646Z,15.13
2022-09-27T05:07:46.177Z,15.73
2022-09-27T05:10:26.312Z,13.60
2022-09-27T05:12:54.726Z,15.80
2022-09-27T05:15:25.638Z,17.80
2022-09-27T05:18:12.244Z,16.13
2022-09-27T05:20:40.534Z,15.27
2022-09-27T05:23:18.485Z,17.87
2022-09-27T05:25:46.797Z,17.07
2022-09-27T05:28:15.235Z,17.37
2022-09-27T05:30:45.790Z,15.03
2022-09-27T05:33:20.195Z,15.17
2022-09-27T05:35:53.378Z,21.50
2022-09-27T05:38:24.265Z,17.70
2022-09-27T05:40:55.798Z,18.20
2022-09-27T05:43:25.522Z,18.60
2022-09-27T05:45:56.053Z,18.67
2022-09-27T05:48:24.898Z,15.43
2022-09-27T05:51:02.423Z,18.17
2022-09-27T05:53:33.072Z,19.63
2022-09-27T05:56:04.583Z,19.50
2022-09-27T05:59:00.112Z,17.97
2022-09-27T06:01:37.330Z,19.27
2022-09-27T06:04:25.692Z,18.83
2022-09-27T06:07:13.844Z,18.60
2022-09-27T06:09:44.332Z,19.20
2022-09-27T06:12:14.431Z,22.17
2022-09-27T06:14:42.838Z,16.60
2022-09-27T06:17:17.444Z,19.43
2022-09-27T06:19:47.771Z,17.50
2022-09-27T06:22:16.886Z,17.40
2022-09-27T06:25:04.063Z,18.87
2022-09-27T06:27:35.553Z,15.97
2022-09-27T06:30:14.873Z,19.00
2022-09-27T06:32:59.245Z,14.03
2022-09-27T06:35:33.359Z,14.80
2022-09-27T06:38:05.021Z,15.00
2022-09-27T06:40:33.961Z,13.90
2022-09-27T06:43:33.207Z,12.57
2022-09-27T06:46:15.992Z,13.40
2022-09-27T06:49:05.252Z,12.37
2022-09-27T06:51:34.283Z,12.77
2022-09-27T06:54:02.572Z,10.63
2022-09-27T06:56:30.872Z,14.03
2022-09-27T06:59:17.344Z,12.20
2022-09-27T07:01:46.404Z,11.03
2022-09-27T07:04:18.926Z,12.03
2022-09-27T07:06:59.250Z,11.90
2022-09-27T07:09:32.326Z,13.03
2022-09-27T07:12:00.826Z,11.93
2022-09-27T07:14:30.346Z,12.40
2022-09-27T07:16:58.631Z,11.90
2022-09-27T07:19:30.481Z,11.93
2022-09-27T07:21:58.854Z,12.07
2022-09-27T07:24:27.122Z,14.03
2022-09-27T07:26:55.598Z,12.30
2022-09-27T07:29:24.788Z,12.23
2022-09-27T07:31:55.018Z,12.20
2022-09-27T07:34:24.052Z,17.33
2022-09-27T07:36:55.196Z,11.73
2022-09-27T07:39:23.558Z,12.00
2022-09-27T07:41:52.419Z,11.57
2022-09-27T07:44:20.726Z,10.43
2022-09-27T07:47:08.230Z,11.40
2022-09-27T07:50:04.816Z,12.00
2022-09-27T07:52:51.281Z,10.13
2022-09-27T07:55:52.036Z,11.53
2022-09-27T07:58:22.988Z,11.57
2022-09-27T08:00:54.609Z,11.30
2022-09-27T08:03:23.118Z,11.93
2022-09-27T08:05:51.708Z,11.33
2022-09-27T08:08:22.463Z,11.70
2022-09-27T08:10:52.328Z,10.77
2022-09-27T08:13:21.540Z,16.17
2022-09-27T08:15:54.007Z,12.17
2022-09-27T08:18:25.208Z,11.70
2022-09-27T08:20:58.138Z,11.77
2022-09-27T08:23:55.130Z,11.47
2022-09-27T08:26:30.699Z,11.83
2022-09-27T08:29:10.888Z,11.20
2022-09-27T08:31:44.219Z,11.60
2022-09-27T08:34:13.130Z,12.03
2022-09-27T08:36:41.428Z,10.47
2022-09-27T08:39:11.385Z,9.87
2022-09-27T08:41:49.471Z,8.83
2022-09-27T08:44:24.747Z,9.13
2022-09-27T08:47:16.797Z,9.57
2022-09-27T08:49:50.739Z,8.73
2022-09-27T08:52:22.013Z,8.80
2022-09-27T08:54:52.205Z,9.27
2022-09-27T08:57:20.987Z,9.27
2022-09-27T08:59:54.555Z,8.43
2022-09-27T09:02:24.776Z,8.60
2022-09-27T09:04:55.999Z,8.60
2022-09-27T09:07:40.593Z,8.97
2022-09-27T09:10:38.056Z,7.70
2022-09-27T09:13:11.852Z,7.97
2022-09-27T09:15:56.628Z,9.17
2022-09-27T09:18:39.804Z,8.43
2022-09-27T09:21:23.390Z,8.97
2022-09-27T09:24:16.516Z,9.20
2022-09-27T09:26:49.924Z,8.70
2022-09-27T09:29:28.153Z,7.63
2022-09-27T09:32:00.176Z,9.27
2022-09-27T09:34:32.956Z,12.50
2022-09-27T09:37:04.179Z,13.03
2022-09-27T09:39:36.215Z,13.70
2022-09-27T09:42:10.012Z,12.10
2022-09-27T09:44:45.243Z,12.77
2022-09-27T09:47:20.330Z,13.37
2022-09-27T09:49:53.302Z,9.80
2022-09-27T09:52:25.009Z,11.87
2022-09-27T09:54:56.266Z,8.93
2022-09-27T09:57:28.907Z,8.83
2022-09-27T09:59:59.898Z,9.10
2022-09-27T10:02:33.572Z,9.87
2022-09-27T10:05:12.407Z,9.17
2022-09-27T10:07:41.531Z,8.57
2022-09-27T10:10:14.111Z,9.50
2022-09-27T10:12:50.052Z,9.73
2022-09-27T10:15:22.613Z,11.70
2022-09-27T10:17:54.074Z,7.30
2022-09-27T10:20:30.225Z,3.83
2022-09-27T10:23:05.398Z,3.23
2022-09-27T10:25:53.343Z,1.53
2022-09-27T10:28:39.375Z,2.10
2022-09-27T10:31:09.631Z,2.43
2022-09-27T10:33:53.773Z,2.87
2022-09-27T10:36:26.516Z,3.60
2022-09-27T10:38:56.077Z,2.83
2022-09-27T10:41:36.761Z,3.63
2022-09-27T10:44:27.377Z,2.37
2022-09-27T10:47:23.888Z,2.30
2022-09-27T10:50:06.890Z,2.40
2022-09-27T10:53:05.474Z,1.73
2022-09-27T10:55:35.935Z,1.73
2022-09-27T10:58:05.218Z,2.87
2022-09-27T11:00:36.629Z,2.90
2022-09-27T11:03:08.947Z,3.43
2022-09-27T11:05:39.979Z,2.80
2022-09-27T11:08:24.424Z,2.67
2022-09-27T11:11:06.692Z,2.20
2022-09-27T11:13:37.977Z,2.60
2022-09-27T11:16:22.594Z,2.90
2022-09-27T11:19:03.003Z,2.13
2022-09-27T11:21:36.926Z,3.63
2022-09-27T11:24:17.684Z,2.93
2022-09-27T11:26:54.060Z,4.07
2022-09-27T11:29:28.153Z,3.90
2022-09-27T11:32:46.474Z,2.63
2022-09-27T11:35:47.284Z,2.40
2022-09-27T11:38:40.888Z,3.47
2022-09-27T11:41:22.948Z,4.33
2022-09-27T11:44:24.365Z,2.53
2022-09-27T11:47:00.801Z,3.40
2022-09-27T11:49:57.581Z,3.03
2022-09-27T11:52:37.822Z,5.87
2022-09-27T11:55:16.688Z,2.47
2022-09-27T11:57:49.997Z,2.30
2022-09-27T12:00:21.726Z,4.00
2022-09-27T12:03:22.291Z,2.60
2022-09-27T12:06:07.268Z,4.50
2022-09-27T12:08:54.642Z,7.23
2022-09-27T12:11:26.673Z,3.80
2022-09-27T12:13:59.110Z,2.77
2022-09-27T12:16:28.617Z,2.50
2022-09-27T12:18:57.588Z,3.00
2022-09-27T12:21:47.559Z,3.73
2022-09-27T12:24:21.284Z,3.47
2022-09-27T12:27:11.853Z,4.23
2022-09-27T12:29:41.952Z,4.83
2022-09-27T12:32:15.293Z,5.97
2022-09-27T12:34:47.171Z,4.60
2022-09-27T12:37:20.988Z,4.17
2022-09-27T12:39:53.241Z,4.10
2022-09-27T12:42:27.467Z,3.57
2022-09-27T12:45:01.113Z,5.23
2022-09-27T12:47:38.196Z,4.23
2022-09-27T12:50:17.085Z,5.93
2022-09-27T12:52:51.130Z,4.30
2022-09-27T12:55:44.142Z,5.20
2022-09-27T12:58:49.600Z,4.87
2022-09-27T13:01:29.161Z,4.90
2022-09-27T13:04:15.881Z,5.10
2022-09-27T13:06:59.482Z,4.20
2022-09-27T13:09:51.356Z,6.53
2022-09-27T13:12:22.127Z,5.53
2022-09-27T13:14:58.831Z,4.73
2022-09-27T13:17:50.110Z,4.40
2022-09-27T13:20:44.415Z,4.77
2022-09-27T13:23:51.550Z,4.93
2022-09-27T13:26:44.529Z,7.70
2022-09-27T13:29:29.534Z,4.47
2022-09-27T13:32:23.688Z,4.47
2022-09-27T13:35:21.789Z,5.03
2022-09-27T13:37:59.559Z,5.40
2022-09-27T13:40:45.500Z,5.13
2022-09-27T13:43:41.661Z,6.37
2022-09-27T13:46:30.977Z,4.60
2022-09-27T13:49:04.840Z,4.27
2022-09-27T13:52:20.870Z,4.93
2022-09-27T13:54:59.188Z,4.53
2022-09-27T13:57:43.414Z,4.53
2022-09-27T14:00:19.895Z,4.73
2022-09-27T14:03:07.355Z,4.27
2022-09-27T14:05:40.846Z,3.43
2022-09-27T14:08:21.369Z,4.23
2022-09-27T14:10:50.763Z,4.80
2022-09-27T14:13:21.498Z,4.27
2022-09-27T14:16:03.073Z,4.27
2022-09-27T14:18:31.673Z,5.87
2022-09-27T14:21:13.269Z,5.57
2022-09-27T14:24:24.900Z,6.33
2022-09-27T14:27:11.564Z,3.57
2022-09-27T14:29:44.927Z,8.33
2022-09-27T14:32:18.859Z,4.40
2022-09-27T14:35:06.368Z,4.33
2022-09-27T14:37:36.453Z,2.87
2022-09-27T14:40:20.449Z,3.30
2022-09-27T14:42:49.583Z,2.70
2022-09-27T14:45:22.925Z,3.63
2022-09-27T14:47:52.851Z,2.33
2022-09-27T14:50:23.876Z,3.17
2022-09-27T14:52:55.839Z,3.33
2022-09-27T14:55:25.688Z,4.93
2022-09-27T14:57:55.573Z,3.20
2022-09-27T15:00:26.604Z,7.23
2022-09-27T15:02:59.125Z,2.90
2022-09-27T15:05:29.646Z,3.60
2022-09-27T15:07:59.565Z,3.07
2022-09-27T15:10:31.472Z,4.97
2022-09-27T15:13:01.580Z,3.23
2022-09-27T15:15:32.797Z,3.80
2022-09-27T15:18:03.630Z,5.20
2022-09-27T15:20:35.131Z,5.20
2022-09-27T15:23:06.587Z,3.23
2022-09-27T15:25:36.772Z,4.77
2022-09-27T15:28:06.922Z,3.90
2022-09-27T15:30:36.870Z,3.73
2022-09-27T15:33:07.420Z,3.23
2022-09-27T15:35:36.821Z,3.50
2022-09-27T15:38:32.740Z,4.50
2022-09-27T15:41:05.564Z,4.50
2022-09-27T15:43:37.161Z,3.17
2022-09-27T15:46:09.753Z,3.77
2022-09-27T15:48:42.208Z,4.23
2022-09-27T15:51:40.819Z,3.50
2022-09-27T15:54:09.675Z,4.13
2022-09-27T15:56:40.479Z,3.20
2022-09-27T15:59:14.406Z,3.47
2022-09-27T16:01:43.118Z,3.90
2022-09-27T16:04:13.024Z,4.23
2022-09-27T16:06:42.899Z,3.70
2022-09-27T16:09:17.861Z,4.70
2022-09-27T16:11:46.752Z,4.63
2022-09-27T16:14:18.441Z,4.70
2022-09-27T16:16:50.256Z,4.60
2022-09-27T16:19:23.395Z,4.43
2022-09-27T16:21:52.540Z,4.97
2022-09-27T16:24:21.470Z,4.17
2022-09-27T16:26:51.020Z,6.70
2022-09-27T16:29:21.911Z,4.90
2022-09-27T16:31:53.892Z,5.67
2022-09-27T16:34:26.588Z,7.03
2022-09-27T16:36:55.786Z,4.33
2022-09-27T16:39:24.334Z,4.50
2022-09-27T16:41:54.803Z,3.63
2022-09-27T16:44:23.274Z,4.17
2022-09-27T16:46:51.793Z,4.73
2022-09-27T16:49:37.417Z,5.73
2022-09-27T16:52:07.233Z,5.97
2022-09-27T16:54:35.604Z,4.93
2022-09-27T16:57:05.078Z,5.23
2022-09-27T16:59:33.583Z,7.43
2022-09-27T17:02:02.217Z,9.83
2022-09-27T17:04:30.725Z,6.27
2022-09-27T17:06:59.552Z,9.77
2022-09-27T17:09:29.323Z,7.70
2022-09-27T17:11:57.706Z,8.23
2022-09-27T17:14:27.256Z,7.87
2022-09-27T17:16:55.511Z,7.53
2022-09-27T17:19:24.058Z,5.97
2022-09-27T17:21:53.008Z,7.40
2022-09-27T17:24:21.700Z,5.63
2022-09-27T17:26:52.505Z,5.90
2022-09-27T17:29:21.220Z,7.30
2022-09-27T17:31:50.452Z,7.93
2022-09-27T17:34:19.158Z,9.40
2022-09-27T17:36:50.464Z,6.53
2022-09-27T17:39:22.565Z,6.33
2022-09-27T17:41:52.723Z,6.00
2022-09-27T17:44:22.050Z,8.27
2022-09-27T17:47:11.613Z,5.43
2022-09-27T17:49:58.714Z,6.77
2022-09-27T17:52:28.935Z,6.00
2022-09-27T17:54:58.621Z,5.40
2022-09-27T17:57:28.541Z,7.43
2022-09-27T17:59:58.010Z,7.20
2022-09-27T18:02:26.771Z,6.33
2022-09-27T18:04:55.239Z,6.90
2022-09-27T18:07:23.715Z,8.03
2022-09-27T18:09:52.534Z,10.10
2022-09-27T18:12:22.310Z,10.47
2022-09-27T18:14:52.106Z,9.97
2022-09-27T18:17:21.649Z,10.33
2022-09-27T18:19:50.023Z,12.97
2022-09-27T18:22:18.487Z,13.33
2022-09-27T18:24:46.929Z,16.10
2022-09-27T18:27:18.570Z,13.47
2022-09-27T18:29:47.238Z,12.43
2022-09-27T18:32:16.973Z,15.97
2022-09-27T18:34:45.427Z,16.30
2022-09-27T18:37:13.838Z,21.37
2022-09-27T18:39:42.383Z,15.67
2022-09-27T18:42:10.915Z,11.53
2022-09-27T18:44:39.686Z,13.00
2022-09-27T18:47:08.184Z,12.93
2022-09-27T18:49:38.292Z,13.90
2022-09-27T18:52:07.650Z,15.10
2022-09-27T18:54:38.784Z,14.27
2022-09-27T18:57:07.646Z,14.53
2022-09-27T18:59:36.461Z,17.07
2022-09-27T19:02:04.948Z,15.77
2022-09-27T19:04:33.913Z,15.97
2022-09-27T19:07:04.237Z,15.27
2022-09-27T19:09:32.709Z,13.90
2022-09-27T19:12:01.332Z,15.50
2022-09-27T19:14:30.200Z,17.47
2022-09-27T19:16:58.666Z,17.13
2022-09-27T19:19:27.326Z,14.03
2022-09-27T19:21:56.501Z,16.07
2022-09-27T19:24:26.868Z,13.60
2022-09-27T19:26:58.708Z,13.13
2022-09-27T19:29:27.651Z,17.10
2022-09-27T19:31:56.309Z,20.33
2022-09-27T19:34:24.713Z,15.90
2022-09-27T19:36:53.117Z,12.23
2022-09-27T19:39:22.616Z,12.97
2022-09-27T19:41:52.432Z,15.23
2022-09-27T19:44:20.715Z,14.80
2022-09-27T19:46:49.355Z,14.70
2022-09-27T19:49:19.231Z,15.10
2022-09-27T19:51:47.999Z,18.80
2022-09-27T19:54:16.554Z,17.90
2022-09-27T19:56:44.892Z,21.00
2022-09-27T19:59:14.830Z,17.37
2022-09-27T20:01:44.235Z,15.77
2022-09-27T20:04:13.039Z,18.43
2022-09-27T20:06:41.645Z,18.07
2022-09-27T20:09:10.933Z,22.90
2022-09-27T20:11:39.223Z,32.67
2022-09-27T20:14:08.173Z,14.60
2022-09-27T20:16:41.399Z,17.63
2022-09-27T20:19:11.478Z,20.50
2022-09-27T20:21:39.892Z,14.87
2022-09-27T20:24:08.100Z,14.70
2022-09-27T20:26:38.390Z,13.10
2022-09-27T20:29:07.931Z,17.20
2022-09-27T20:31:56.976Z,14.20
2022-09-27T20:34:29.651Z,12.80
2022-09-27T20:36:57.811Z,12.50
2022-09-27T20:39:26.030Z,13.07
2022-09-27T20:41:54.310Z,14.70
2022-09-27T20:44:22.834Z,11.17
2022-09-27T20:46:52.463Z,14.37
2022-09-27T20:49:20.904Z,11.77
2022-09-27T20:51:49.732Z,10.70
2022-09-27T20:54:18.480Z,14.20
2022-09-27T20:56:48.034Z,10.03
2022-09-27T20:59:18.381Z,12.37
2022-09-27T21:01:49.103Z,10.70
2022-09-27T21:04:20.117Z,9.30
2022-09-27T21:06:49.066Z,8.93
2022-09-27T21:09:19.171Z,11.73
2022-09-27T21:11:48.147Z,10.20
2022-09-27T21:14:16.486Z,11.10
2022-09-27T21:16:44.914Z,13.77
2022-09-27T21:19:13.546Z,12.77
2022-09-27T21:21:43.516Z,11.20
2022-09-27T21:24:11.945Z,12.77
2022-09-27T21:26:40.179Z,13.83
2022-09-27T21:29:10.393Z,12.30
2022-09-27T21:31:39.006Z,11.10
2022-09-27T21:34:07.687Z,11.53
2022-09-27T21:36:37.110Z,12.40
2022-09-27T21:39:08.630Z,11.57
2022-09-27T21:41:37.488Z,11.03
2022-09-27T21:44:06.597Z,7.57
2022-09-27T21:46:35.560Z,6.40
2022-09-27T21:49:03.813Z,6.33
2022-09-27T21:51:33.749Z,8.67
2022-09-27T21:54:03.153Z,10.10
2022-09-27T21:56:34.525Z,8.53
2022-09-27T21:59:03.248Z,7.00
2022-09-27T22:01:33.200Z,11.23
2022-09-27T22:04:03.041Z,7.20
2022-09-27T22:06:33.291Z,6.40
2022-09-27T22:09:03.104Z,8.37
2022-09-27T22:11:34.387Z,9.17
2022-09-27T22:14:02.671Z,8.07
2022-09-27T22:16:31.230Z,4.97
2022-09-27T22:19:00.120Z,6.17
2022-09-27T22:21:29.723Z,7.87
2022-09-27T22:24:00.990Z,6.40
2022-09-27T22:26:34.432Z,6.40
2022-09-27T22:29:02.692Z,5.17
2022-09-27T22:31:30.961Z,3.37
2022-09-27T22:34:00.777Z,4.27
2022-09-27T22:36:29.667Z,4.07
2022-09-27T22:38:58.283Z,4.87
2022-09-27T22:41:27.015Z,4.70
2022-09-27T22:43:57.423Z,3.40
2022-09-27T22:46:26.062Z,4.50
2022-09-27T22:48:55.829Z,3.17
2022-09-27T22:51:24.122Z,4.53
2022-09-27T22:53:52.598Z,2.77
2022-09-27T22:56:21.885Z,3.37
2022-09-27T22:58:50.877Z,2.47
2022-09-27T23:01:21.874Z,3.23
2022-09-27T23:03:51.752Z,1.70
2022-09-27T23:06:21.289Z,3.80
2022-09-27T23:08:50.385Z,2.13
2022-09-27T23:11:19.695Z,2.57
2022-09-27T23:13:49.053Z,4.50
2022-09-27T23:16:19.486Z,2.23
2022-09-27T23:18:50.249Z,3.40
2022-09-27T23:21:18.477Z,2.67
2022-09-27T23:23:47.628Z,1.87
2022-09-27T23:26:17.422Z,4.80
2022-09-27T23:28:45.876Z,1.50
2022-09-27T23:31:15.504Z,2.63
2022-09-27T23:33:45.003Z,1.67
2022-09-27T23:36:16.337Z,1.50
2022-09-27T23:38:45.963Z,3.03
2022-09-27T23:41:15.257Z,2.00
2022-09-27T23:43:44.135Z,1.80
2022-09-27T23:46:13.282Z,1.90
2022-09-27T23:48:41.858Z,4.20
2022-09-27T23:51:12.046Z,1.93
2022-09-27T23:53:41.768Z,3.80
2022-09-27T23:56:12.394Z,2.40
2022-09-27T23:58:42.228Z,2.67
